sensor_id;sensor_type;location;lat;lon;timestamp;P1;durP1;ratioP1;P2;durP2;ratioP2
16354;SDS011;8287;51.644;8.494;2023-04-24T00:01:19;0.52;;;0.40;;
16354;SDS011;8287;51.644;8.494;2023-04-24T00:03:46;0.57;;;0.57;;
16354;SDS011;8287;51.644;8.494;2023-04-24T00:06:12;0.30;;;0.30;;
16354;SDS011;8287;51.644;8.494;2023-04-24T00:08:42;0.28;;;0.28;;
16354;SDS011;8287;51.644;8.494;2023-04-24T00:11:09;0.30;;;0.30;;
16354;SDS011;8287;51.644;8.494;2023-04-24T00:13:37;0.30;;;0.30;;
16354;SDS011;8287;51.644;8.494;2023-04-24T00:16:03;0.40;;;0.40;;
16354;SDS011;8287;51.644;8.494;2023-04-24T00:18:30;0.70;;;0.43;;
16354;SDS011;8287;51.644;8.494;2023-04-24T00:20:57;1.08;;;0.52;;
16354;SDS011;8287;51.644;8.494;2023-04-24T00:23:23;0.98;;;0.40;;
16354;SDS011;8287;51.644;8.494;2023-04-24T00:25:50;0.70;;;0.40;;
16354;SDS011;8287;51.644;8.494;2023-04-24T00:28:18;0.40;;;0.40;;
16354;SDS011;8287;51.644;8.494;2023-04-24T00:30:44;1.05;;;0.40;;
16354;SDS011;8287;51.644;8.494;2023-04-24T00:33:11;0.30;;;0.30;;
16354;SDS011;8287;51.644;8.494;2023-04-24T00:35:37;1.00;;;0.43;;
16354;SDS011;8287;51.644;8.494;2023-04-24T00:38:05;0.98;;;0.50;;
16354;SDS011;8287;51.644;8.494;2023-04-24T00:40:31;2.40;;;0.68;;
16354;SDS011;8287;51.644;8.494;2023-04-24T00:42:58;0.55;;;0.30;;
16354;SDS011;8287;51.644;8.494;2023-04-24T00:45:26;2.45;;;0.30;;
16354;SDS011;8287;51.644;8.494;2023-04-24T00:47:53;0.20;;;0.20;;
16354;SDS011;8287;51.644;8.494;2023-04-24T00:50:20;0.35;;;0.30;;
16354;SDS011;8287;51.644;8.494;2023-04-24T00:52:47;0.35;;;0.30;;
16354;SDS011;8287;51.644;8.494;2023-04-24T00:55:14;0.45;;;0.40;;
16354;SDS011;8287;51.644;8.494;2023-04-24T00:57:41;0.57;;;0.47;;
16354;SDS011;8287;51.644;8.494;2023-04-24T01:00:08;0.52;;;0.38;;
16354;SDS011;8287;51.644;8.494;2023-04-24T01:02:38;2.30;;;0.47;;
16354;SDS011;8287;51.644;8.494;2023-04-24T01:05:09;0.32;;;0.32;;
16354;SDS011;8287;51.644;8.494;2023-04-24T01:07:36;3.55;;;0.70;;
16354;SDS011;8287;51.644;8.494;2023-04-24T01:10:04;0.50;;;0.50;;
16354;SDS011;8287;51.644;8.494;2023-04-24T01:12:32;1.08;;;0.35;;
16354;SDS011;8287;51.644;8.494;2023-04-24T01:14:58;0.15;;;0.15;;
16354;SDS011;8287;51.644;8.494;2023-04-24T01:17:25;0.38;;;0.38;;
16354;SDS011;8287;51.644;8.494;2023-04-24T01:19:53;0.52;;;0.47;;
16354;SDS011;8287;51.644;8.494;2023-04-24T01:22:23;1.05;;;0.50;;
16354;SDS011;8287;51.644;8.494;2023-04-24T01:24:49;0.55;;;0.40;;
16354;SDS011;8287;51.644;8.494;2023-04-24T01:27:16;0.20;;;0.20;;
16354;SDS011;8287;51.644;8.494;2023-04-24T01:29:43;0.30;;;0.30;;
16354;SDS011;8287;51.644;8.494;2023-04-24T01:32:09;0.73;;;0.32;;
16354;SDS011;8287;51.644;8.494;2023-04-24T01:34:37;0.30;;;0.30;;
16354;SDS011;8287;51.644;8.494;2023-04-24T01:37:04;0.30;;;0.30;;
16354;SDS011;8287;51.644;8.494;2023-04-24T01:39:32;0.35;;;0.32;;
16354;SDS011;8287;51.644;8.494;2023-04-24T01:41:59;0.30;;;0.30;;
16354;SDS011;8287;51.644;8.494;2023-04-24T01:44:26;0.65;;;0.47;;
16354;SDS011;8287;51.644;8.494;2023-04-24T01:46:54;0.20;;;0.20;;
16354;SDS011;8287;51.644;8.494;2023-04-24T01:49:21;0.35;;;0.30;;
16354;SDS011;8287;51.644;8.494;2023-04-24T01:51:48;0.22;;;0.22;;
16354;SDS011;8287;51.644;8.494;2023-04-24T01:54:15;0.50;;;0.50;;
16354;SDS011;8287;51.644;8.494;2023-04-24T01:56:43;0.73;;;0.60;;
16354;SDS011;8287;51.644;8.494;2023-04-24T01:59:09;0.47;;;0.47;;
16354;SDS011;8287;51.644;8.494;2023-04-24T02:01:37;0.20;;;0.20;;
16354;SDS011;8287;51.644;8.494;2023-04-24T02:04:04;0.47;;;0.47;;
16354;SDS011;8287;51.644;8.494;2023-04-24T02:06:32;0.40;;;0.40;;
16354;SDS011;8287;51.644;8.494;2023-04-24T02:08:58;0.30;;;0.30;;
16354;SDS011;8287;51.644;8.494;2023-04-24T02:11:25;0.40;;;0.40;;
16354;SDS011;8287;51.644;8.494;2023-04-24T02:13:53;0.65;;;0.60;;
16354;SDS011;8287;51.644;8.494;2023-04-24T02:16:20;0.43;;;0.43;;
16354;SDS011;8287;51.644;8.494;2023-04-24T02:18:46;0.40;;;0.40;;
16354;SDS011;8287;51.644;8.494;2023-04-24T02:21:13;1.02;;;0.40;;
16354;SDS011;8287;51.644;8.494;2023-04-24T02:23:39;0.50;;;0.50;;
16354;SDS011;8287;51.644;8.494;2023-04-24T02:26:06;0.50;;;0.50;;
16354;SDS011;8287;51.644;8.494;2023-04-24T02:28:33;0.40;;;0.40;;
16354;SDS011;8287;51.644;8.494;2023-04-24T02:31:01;1.08;;;0.85;;
16354;SDS011;8287;51.644;8.494;2023-04-24T02:33:27;2.03;;;0.50;;
16354;SDS011;8287;51.644;8.494;2023-04-24T02:35:54;0.90;;;0.52;;
16354;SDS011;8287;51.644;8.494;2023-04-24T02:38:20;0.98;;;0.60;;
16354;SDS011;8287;51.644;8.494;2023-04-24T02:40:49;1.00;;;0.60;;
16354;SDS011;8287;51.644;8.494;2023-04-24T02:43:16;5.28;;;0.98;;
16354;SDS011;8287;51.644;8.494;2023-04-24T02:45:42;0.50;;;0.50;;
16354;SDS011;8287;51.644;8.494;2023-04-24T02:48:10;1.08;;;0.55;;
16354;SDS011;8287;51.644;8.494;2023-04-24T02:50:37;1.75;;;0.63;;
16354;SDS011;8287;51.644;8.494;2023-04-24T02:53:03;1.38;;;0.50;;
16354;SDS011;8287;51.644;8.494;2023-04-24T02:55:30;1.35;;;0.50;;
16354;SDS011;8287;51.644;8.494;2023-04-24T02:57:56;0.85;;;0.60;;
16354;SDS011;8287;51.644;8.494;2023-04-24T03:00:23;1.45;;;0.50;;
16354;SDS011;8287;51.644;8.494;2023-04-24T03:02:50;0.32;;;0.32;;
16354;SDS011;8287;51.644;8.494;2023-04-24T03:05:18;0.60;;;0.60;;
16354;SDS011;8287;51.644;8.494;2023-04-24T03:07:44;0.50;;;0.50;;
16354;SDS011;8287;51.644;8.494;2023-04-24T03:10:11;3.05;;;0.50;;
16354;SDS011;8287;51.644;8.494;2023-04-24T03:12:38;1.25;;;0.50;;
16354;SDS011;8287;51.644;8.494;2023-04-24T03:15:05;2.00;;;0.65;;
16354;SDS011;8287;51.644;8.494;2023-04-24T03:17:32;0.50;;;0.50;;
16354;SDS011;8287;51.644;8.494;2023-04-24T03:19:59;0.40;;;0.30;;
16354;SDS011;8287;51.644;8.494;2023-04-24T03:22:26;0.52;;;0.40;;
16354;SDS011;8287;51.644;8.494;2023-04-24T03:24:53;0.77;;;0.65;;
16354;SDS011;8287;51.644;8.494;2023-04-24T03:27:21;1.00;;;0.50;;
16354;SDS011;8287;51.644;8.494;2023-04-24T03:29:48;0.52;;;0.52;;
16354;SDS011;8287;51.644;8.494;2023-04-24T03:32:18;1.70;;;0.63;;
16354;SDS011;8287;51.644;8.494;2023-04-24T03:34:45;0.45;;;0.45;;
16354;SDS011;8287;51.644;8.494;2023-04-24T03:37:12;0.60;;;0.60;;
16354;SDS011;8287;51.644;8.494;2023-04-24T03:39:39;0.50;;;0.50;;
16354;SDS011;8287;51.644;8.494;2023-04-24T03:42:06;0.57;;;0.57;;
16354;SDS011;8287;51.644;8.494;2023-04-24T03:44:33;1.20;;;1.00;;
16354;SDS011;8287;51.644;8.494;2023-04-24T03:47:00;0.88;;;0.65;;
16354;SDS011;8287;51.644;8.494;2023-04-24T03:49:26;0.70;;;0.70;;
16354;SDS011;8287;51.644;8.494;2023-04-24T03:51:53;0.80;;;0.80;;
16354;SDS011;8287;51.644;8.494;2023-04-24T03:54:20;1.27;;;1.17;;
16354;SDS011;8287;51.644;8.494;2023-04-24T03:56:48;2.00;;;1.10;;
16354;SDS011;8287;51.644;8.494;2023-04-24T03:59:14;1.00;;;1.00;;
16354;SDS011;8287;51.644;8.494;2023-04-24T04:01:41;2.25;;;1.02;;
16354;SDS011;8287;51.644;8.494;2023-04-24T04:04:07;1.23;;;1.10;;
16354;SDS011;8287;51.644;8.494;2023-04-24T04:06:34;1.67;;;1.35;;
16354;SDS011;8287;51.644;8.494;2023-04-24T04:09:01;1.02;;;1.00;;
16354;SDS011;8287;51.644;8.494;2023-04-24T04:11:28;2.00;;;1.20;;
16354;SDS011;8287;51.644;8.494;2023-04-24T04:13:56;1.33;;;0.98;;
16354;SDS011;8287;51.644;8.494;2023-04-24T04:16:22;4.28;;;0.88;;
16354;SDS011;8287;51.644;8.494;2023-04-24T04:18:49;0.88;;;0.88;;
16354;SDS011;8287;51.644;8.494;2023-04-24T04:21:16;1.55;;;1.45;;
16354;SDS011;8287;51.644;8.494;2023-04-24T04:23:42;2.03;;;1.48;;
16354;SDS011;8287;51.644;8.494;2023-04-24T04:26:09;2.50;;;1.63;;
16354;SDS011;8287;51.644;8.494;2023-04-24T04:28:35;1.88;;;1.77;;
16354;SDS011;8287;51.644;8.494;2023-04-24T04:31:04;1.52;;;1.30;;
16354;SDS011;8287;51.644;8.494;2023-04-24T04:33:32;1.50;;;1.35;;
16354;SDS011;8287;51.644;8.494;2023-04-24T04:35:59;1.50;;;1.40;;
16354;SDS011;8287;51.644;8.494;2023-04-24T04:38:26;3.28;;;1.98;;
16354;SDS011;8287;51.644;8.494;2023-04-24T04:40:55;1.90;;;1.70;;
16354;SDS011;8287;51.644;8.494;2023-04-24T04:43:22;2.72;;;2.05;;
16354;SDS011;8287;51.644;8.494;2023-04-24T04:45:49;1.88;;;1.70;;
16354;SDS011;8287;51.644;8.494;2023-04-24T04:48:18;2.15;;;1.92;;
16354;SDS011;8287;51.644;8.494;2023-04-24T04:50:45;2.53;;;2.30;;
16354;SDS011;8287;51.644;8.494;2023-04-24T04:53:11;3.13;;;2.83;;
16354;SDS011;8287;51.644;8.494;2023-04-24T04:55:38;2.80;;;2.50;;
16354;SDS011;8287;51.644;8.494;2023-04-24T04:58:04;5.20;;;3.05;;
16354;SDS011;8287;51.644;8.494;2023-04-24T05:00:31;6.88;;;2.85;;
16354;SDS011;8287;51.644;8.494;2023-04-24T05:03:00;4.03;;;2.70;;
16354;SDS011;8287;51.644;8.494;2023-04-24T05:05:28;3.45;;;3.15;;
16354;SDS011;8287;51.644;8.494;2023-04-24T05:07:55;6.60;;;3.70;;
16354;SDS011;8287;51.644;8.494;2023-04-24T05:10:22;5.00;;;4.25;;
16354;SDS011;8287;51.644;8.494;2023-04-24T05:12:48;5.65;;;4.95;;
16354;SDS011;8287;51.644;8.494;2023-04-24T05:15:15;6.40;;;5.68;;
16354;SDS011;8287;51.644;8.494;2023-04-24T05:17:42;6.60;;;5.90;;
16354;SDS011;8287;51.644;8.494;2023-04-24T05:20:08;6.93;;;6.03;;
16354;SDS011;8287;51.644;8.494;2023-04-24T05:22:37;9.07;;;6.05;;
16354;SDS011;8287;51.644;8.494;2023-04-24T05:25:03;6.70;;;5.95;;
16354;SDS011;8287;51.644;8.494;2023-04-24T05:27:30;8.55;;;6.03;;
16354;SDS011;8287;51.644;8.494;2023-04-24T05:29:57;7.68;;;4.95;;
16354;SDS011;8287;51.644;8.494;2023-04-24T05:32:24;6.32;;;4.93;;
16354;SDS011;8287;51.644;8.494;2023-04-24T05:34:52;6.28;;;5.25;;
16354;SDS011;8287;51.644;8.494;2023-04-24T05:37:18;6.60;;;5.18;;
16354;SDS011;8287;51.644;8.494;2023-04-24T05:39:46;7.15;;;4.80;;
16354;SDS011;8287;51.644;8.494;2023-04-24T05:42:13;5.10;;;4.18;;
16354;SDS011;8287;51.644;8.494;2023-04-24T05:44:39;5.57;;;4.88;;
16354;SDS011;8287;51.644;8.494;2023-04-24T05:47:06;6.85;;;4.60;;
16354;SDS011;8287;51.644;8.494;2023-04-24T05:49:33;5.75;;;4.57;;
16354;SDS011;8287;51.644;8.494;2023-04-24T05:52:02;6.63;;;5.00;;
16354;SDS011;8287;51.644;8.494;2023-04-24T05:54:30;5.57;;;4.50;;
16354;SDS011;8287;51.644;8.494;2023-04-24T05:56:58;10.73;;;5.40;;
16354;SDS011;8287;51.644;8.494;2023-04-24T05:59:26;5.72;;;4.65;;
16354;SDS011;8287;51.644;8.494;2023-04-24T06:01:53;5.10;;;4.53;;
16354;SDS011;8287;51.644;8.494;2023-04-24T06:04:19;5.75;;;4.43;;
16354;SDS011;8287;51.644;8.494;2023-04-24T06:06:46;5.70;;;5.10;;
16354;SDS011;8287;51.644;8.494;2023-04-24T06:09:15;5.38;;;4.40;;
16354;SDS011;8287;51.644;8.494;2023-04-24T06:11:42;5.70;;;4.95;;
16354;SDS011;8287;51.644;8.494;2023-04-24T06:14:10;9.43;;;5.18;;
16354;SDS011;8287;51.644;8.494;2023-04-24T06:16:37;6.57;;;4.45;;
16354;SDS011;8287;51.644;8.494;2023-04-24T06:19:04;7.47;;;5.18;;
16354;SDS011;8287;51.644;8.494;2023-04-24T06:21:30;7.55;;;4.72;;
16354;SDS011;8287;51.644;8.494;2023-04-24T06:23:57;6.82;;;4.88;;
16354;SDS011;8287;51.644;8.494;2023-04-24T06:26:23;6.68;;;4.90;;
16354;SDS011;8287;51.644;8.494;2023-04-24T06:28:51;8.50;;;4.85;;
16354;SDS011;8287;51.644;8.494;2023-04-24T06:31:20;5.95;;;5.05;;
16354;SDS011;8287;51.644;8.494;2023-04-24T06:33:47;4.70;;;4.00;;
16354;SDS011;8287;51.644;8.494;2023-04-24T06:36:15;4.60;;;3.97;;
16354;SDS011;8287;51.644;8.494;2023-04-24T06:38:41;6.18;;;4.82;;
16354;SDS011;8287;51.644;8.494;2023-04-24T06:41:09;6.25;;;4.43;;
16354;SDS011;8287;51.644;8.494;2023-04-24T06:43:36;6.57;;;4.88;;
16354;SDS011;8287;51.644;8.494;2023-04-24T06:46:02;4.68;;;4.07;;
16354;SDS011;8287;51.644;8.494;2023-04-24T06:48:30;4.45;;;4.05;;
16354;SDS011;8287;51.644;8.494;2023-04-24T06:50:57;4.65;;;4.25;;
16354;SDS011;8287;51.644;8.494;2023-04-24T06:53:23;5.00;;;3.97;;
16354;SDS011;8287;51.644;8.494;2023-04-24T06:55:50;7.47;;;3.53;;
16354;SDS011;8287;51.644;8.494;2023-04-24T06:58:17;4.95;;;4.13;;
16354;SDS011;8287;51.644;8.494;2023-04-24T07:00:44;6.15;;;4.35;;
16354;SDS011;8287;51.644;8.494;2023-04-24T07:03:10;4.10;;;3.53;;
16354;SDS011;8287;51.644;8.494;2023-04-24T07:05:38;3.67;;;3.38;;
16354;SDS011;8287;51.644;8.494;2023-04-24T07:08:05;5.95;;;3.85;;
16354;SDS011;8287;51.644;8.494;2023-04-24T07:10:33;11.60;;;3.90;;
16354;SDS011;8287;51.644;8.494;2023-04-24T07:13:00;8.43;;;4.05;;
16354;SDS011;8287;51.644;8.494;2023-04-24T07:15:27;5.00;;;3.95;;
16354;SDS011;8287;51.644;8.494;2023-04-24T07:17:54;4.10;;;3.70;;
16354;SDS011;8287;51.644;8.494;2023-04-24T07:20:20;4.68;;;3.30;;
16354;SDS011;8287;51.644;8.494;2023-04-24T07:22:48;4.75;;;3.78;;
16354;SDS011;8287;51.644;8.494;2023-04-24T07:25:16;3.75;;;3.42;;
16354;SDS011;8287;51.644;8.494;2023-04-24T07:27:43;3.97;;;3.15;;
16354;SDS011;8287;51.644;8.494;2023-04-24T07:30:10;4.85;;;3.45;;
16354;SDS011;8287;51.644;8.494;2023-04-24T07:32:37;4.72;;;3.63;;
16354;SDS011;8287;51.644;8.494;2023-04-24T07:35:04;3.90;;;3.55;;
16354;SDS011;8287;51.644;8.494;2023-04-24T07:37:31;4.70;;;3.17;;
16354;SDS011;8287;51.644;8.494;2023-04-24T07:39:59;3.67;;;3.38;;
16354;SDS011;8287;51.644;8.494;2023-04-24T07:42:25;4.65;;;3.92;;
16354;SDS011;8287;51.644;8.494;2023-04-24T07:44:52;3.03;;;2.72;;
16354;SDS011;8287;51.644;8.494;2023-04-24T07:47:18;4.03;;;3.22;;
16354;SDS011;8287;51.644;8.494;2023-04-24T07:49:45;3.05;;;2.50;;
16354;SDS011;8287;51.644;8.494;2023-04-24T07:52:12;3.30;;;3.00;;
16354;SDS011;8287;51.644;8.494;2023-04-24T07:54:39;2.80;;;2.58;;
16354;SDS011;8287;51.644;8.494;2023-04-24T07:57:06;2.88;;;2.67;;
16354;SDS011;8287;51.644;8.494;2023-04-24T07:59:33;4.05;;;2.65;;
16354;SDS011;8287;51.644;8.494;2023-04-24T08:02:00;5.10;;;2.90;;
16354;SDS011;8287;51.644;8.494;2023-04-24T08:04:27;2.97;;;2.67;;
16354;SDS011;8287;51.644;8.494;2023-04-24T08:06:53;2.97;;;2.65;;
16354;SDS011;8287;51.644;8.494;2023-04-24T08:09:20;3.70;;;3.05;;
16354;SDS011;8287;51.644;8.494;2023-04-24T08:11:47;2.65;;;2.45;;
16354;SDS011;8287;51.644;8.494;2023-04-24T08:14:15;2.97;;;2.67;;
16354;SDS011;8287;51.644;8.494;2023-04-24T08:16:41;2.60;;;2.40;;
16354;SDS011;8287;51.644;8.494;2023-04-24T08:19:08;2.70;;;2.50;;
16354;SDS011;8287;51.644;8.494;2023-04-24T08:21:34;2.20;;;2.00;;
16354;SDS011;8287;51.644;8.494;2023-04-24T08:24:01;2.72;;;2.45;;
16354;SDS011;8287;51.644;8.494;2023-04-24T08:26:30;3.95;;;1.80;;
16354;SDS011;8287;51.644;8.494;2023-04-24T08:28:57;3.20;;;2.90;;
16354;SDS011;8287;51.644;8.494;2023-04-24T08:31:25;4.57;;;2.00;;
16354;SDS011;8287;51.644;8.494;2023-04-24T08:33:52;2.45;;;2.25;;
16354;SDS011;8287;51.644;8.494;2023-04-24T08:36:18;4.07;;;2.53;;
16354;SDS011;8287;51.644;8.494;2023-04-24T08:38:45;1.60;;;1.50;;
16354;SDS011;8287;51.644;8.494;2023-04-24T08:41:11;1.42;;;1.33;;
16354;SDS011;8287;51.644;8.494;2023-04-24T08:43:40;1.92;;;1.58;;
16354;SDS011;8287;51.644;8.494;2023-04-24T08:46:08;2.05;;;1.52;;
16354;SDS011;8287;51.644;8.494;2023-04-24T08:48:37;1.08;;;1.05;;
16354;SDS011;8287;51.644;8.494;2023-04-24T08:51:04;1.15;;;1.05;;
16354;SDS011;8287;51.644;8.494;2023-04-24T08:53:33;4.32;;;2.03;;
16354;SDS011;8287;51.644;8.494;2023-04-24T08:55:59;2.20;;;2.00;;
16354;SDS011;8287;51.644;8.494;2023-04-24T08:58:27;2.33;;;1.50;;
16354;SDS011;8287;51.644;8.494;2023-04-24T09:00:54;1.05;;;1.02;;
16354;SDS011;8287;51.644;8.494;2023-04-24T09:03:21;2.20;;;2.00;;
16354;SDS011;8287;51.644;8.494;2023-04-24T09:05:50;1.25;;;1.15;;
16354;SDS011;8287;51.644;8.494;2023-04-24T09:08:19;1.23;;;1.13;;
16354;SDS011;8287;51.644;8.494;2023-04-24T09:10:48;2.42;;;0.90;;
16354;SDS011;8287;51.644;8.494;2023-04-24T09:13:15;1.23;;;1.13;;
16354;SDS011;8287;51.644;8.494;2023-04-24T09:15:42;0.82;;;0.82;;
16354;SDS011;8287;51.644;8.494;2023-04-24T09:18:08;0.70;;;0.70;;
16354;SDS011;8287;51.644;8.494;2023-04-24T09:20:35;0.70;;;0.70;;
16354;SDS011;8287;51.644;8.494;2023-04-24T09:23:27;0.50;;;0.50;;
16354;SDS011;8287;51.644;8.494;2023-04-24T09:25:55;1.20;;;0.70;;
16354;SDS011;8287;51.644;8.494;2023-04-24T09:28:25;0.47;;;0.47;;
16354;SDS011;8287;51.644;8.494;2023-04-24T09:31:01;0.40;;;0.40;;
16354;SDS011;8287;51.644;8.494;2023-04-24T09:33:32;0.85;;;0.50;;
16354;SDS011;8287;51.644;8.494;2023-04-24T09:36:00;0.57;;;0.57;;
16354;SDS011;8287;51.644;8.494;2023-04-24T09:38:31;0.35;;;0.32;;
16354;SDS011;8287;51.644;8.494;2023-04-24T09:40:59;0.47;;;0.40;;
16354;SDS011;8287;51.644;8.494;2023-04-24T09:43:27;0.65;;;0.60;;
16354;SDS011;8287;51.644;8.494;2023-04-24T09:45:55;0.50;;;0.50;;
16354;SDS011;8287;51.644;8.494;2023-04-24T09:48:30;0.55;;;0.52;;
16354;SDS011;8287;51.644;8.494;2023-04-24T09:50:57;2.22;;;1.67;;
16354;SDS011;8287;51.644;8.494;2023-04-24T09:53:27;2.95;;;0.63;;
16354;SDS011;8287;51.644;8.494;2023-04-24T09:55:54;0.93;;;0.52;;
16354;SDS011;8287;51.644;8.494;2023-04-24T09:58:24;0.40;;;0.40;;
16354;SDS011;8287;51.644;8.494;2023-04-24T10:00:53;0.20;;;0.20;;
16354;SDS011;8287;51.644;8.494;2023-04-24T10:03:20;0.90;;;0.40;;
16354;SDS011;8287;51.644;8.494;2023-04-24T10:05:47;0.40;;;0.40;;
16354;SDS011;8287;51.644;8.494;2023-04-24T10:08:13;2.85;;;0.40;;
16354;SDS011;8287;51.644;8.494;2023-04-24T10:10:42;0.30;;;0.25;;
16354;SDS011;8287;51.644;8.494;2023-04-24T10:13:10;0.60;;;0.30;;
16354;SDS011;8287;51.644;8.494;2023-04-24T10:15:38;1.67;;;0.40;;
16354;SDS011;8287;51.644;8.494;2023-04-24T10:18:06;2.78;;;0.20;;
16354;SDS011;8287;51.644;8.494;2023-04-24T10:20:35;0.20;;;0.20;;
16354;SDS011;8287;51.644;8.494;2023-04-24T10:23:02;0.20;;;0.20;;
16354;SDS011;8287;51.644;8.494;2023-04-24T10:25:31;0.10;;;0.10;;
16354;SDS011;8287;51.644;8.494;2023-04-24T10:28:00;0.20;;;0.20;;
16354;SDS011;8287;51.644;8.494;2023-04-24T10:30:28;0.13;;;0.13;;
16354;SDS011;8287;51.644;8.494;2023-04-24T10:32:55;0.20;;;0.17;;
16354;SDS011;8287;51.644;8.494;2023-04-24T10:35:22;0.10;;;0.10;;
16354;SDS011;8287;51.644;8.494;2023-04-24T10:37:54;0.25;;;0.25;;
16354;SDS011;8287;51.644;8.494;2023-04-24T10:40:25;0.22;;;0.20;;
16354;SDS011;8287;51.644;8.494;2023-04-24T10:42:53;0.20;;;0.20;;
16354;SDS011;8287;51.644;8.494;2023-04-24T10:45:22;0.20;;;0.20;;
16354;SDS011;8287;51.644;8.494;2023-04-24T10:50:42;1.00;;;0.20;;
16354;SDS011;8287;51.644;8.494;2023-04-24T10:53:14;0.30;;;0.30;;
16354;SDS011;8287;51.644;8.494;2023-04-24T10:55:44;0.20;;;0.20;;
16354;SDS011;8287;51.644;8.494;2023-04-24T10:58:12;0.20;;;0.20;;
16354;SDS011;8287;51.644;8.494;2023-04-24T11:00:41;0.30;;;0.30;;
16354;SDS011;8287;51.644;8.494;2023-04-24T11:03:22;0.35;;;0.35;;
16354;SDS011;8287;51.644;8.494;2023-04-24T11:05:51;2.30;;;0.73;;
16354;SDS011;8287;51.644;8.494;2023-04-24T11:08:23;0.40;;;0.40;;
16354;SDS011;8287;51.644;8.494;2023-04-24T11:10:56;0.88;;;0.38;;
16354;SDS011;8287;51.644;8.494;2023-04-24T11:13:27;0.88;;;0.68;;
16354;SDS011;8287;51.644;8.494;2023-04-24T11:16:16;0.90;;;0.90;;
16354;SDS011;8287;51.644;8.494;2023-04-24T11:18:51;0.85;;;0.80;;
16354;SDS011;8287;51.644;8.494;2023-04-24T11:21:19;0.80;;;0.80;;
16354;SDS011;8287;51.644;8.494;2023-04-24T11:23:46;0.98;;;0.98;;
16354;SDS011;8287;51.644;8.494;2023-04-24T11:26:17;1.05;;;1.00;;
16354;SDS011;8287;51.644;8.494;2023-04-24T11:28:45;0.85;;;0.85;;
16354;SDS011;8287;51.644;8.494;2023-04-24T11:34:07;0.73;;;0.73;;
16354;SDS011;8287;51.644;8.494;2023-04-24T11:36:38;2.15;;;1.10;;
16354;SDS011;8287;51.644;8.494;2023-04-24T11:39:05;1.58;;;1.48;;
16354;SDS011;8287;51.644;8.494;2023-04-24T11:41:33;1.27;;;1.25;;
16354;SDS011;8287;51.644;8.494;2023-04-24T11:44:00;2.20;;;2.00;;
16354;SDS011;8287;51.644;8.494;2023-04-24T11:46:28;2.50;;;1.38;;
16354;SDS011;8287;51.644;8.494;2023-04-24T11:48:58;1.70;;;1.58;;
16354;SDS011;8287;51.644;8.494;2023-04-24T11:51:25;1.65;;;1.52;;
16354;SDS011;8287;51.644;8.494;2023-04-24T11:53:53;2.15;;;1.98;;
16354;SDS011;8287;51.644;8.494;2023-04-24T11:56:20;2.90;;;2.25;;
16354;SDS011;8287;51.644;8.494;2023-04-24T11:58:47;2.90;;;1.90;;
16354;SDS011;8287;51.644;8.494;2023-04-24T12:01:14;2.97;;;1.25;;
16354;SDS011;8287;51.644;8.494;2023-04-24T12:03:41;1.65;;;1.40;;
16354;SDS011;8287;51.644;8.494;2023-04-24T12:06:13;1.77;;;1.67;;
16354;SDS011;8287;51.644;8.494;2023-04-24T12:08:39;2.20;;;2.00;;
16354;SDS011;8287;51.644;8.494;2023-04-24T12:11:06;2.50;;;2.03;;
16354;SDS011;8287;51.644;8.494;2023-04-24T12:13:34;2.00;;;1.80;;
16354;SDS011;8287;51.644;8.494;2023-04-24T12:16:01;1.90;;;1.50;;
16354;SDS011;8287;51.644;8.494;2023-04-24T12:18:29;1.75;;;1.65;;
16354;SDS011;8287;51.644;8.494;2023-04-24T12:20:55;6.97;;;2.85;;
16354;SDS011;8287;51.644;8.494;2023-04-24T12:23:42;2.67;;;1.88;;
16354;SDS011;8287;51.644;8.494;2023-04-24T12:26:09;2.88;;;2.42;;
16354;SDS011;8287;51.644;8.494;2023-04-24T12:28:37;3.95;;;2.67;;
16354;SDS011;8287;51.644;8.494;2023-04-24T12:31:05;4.75;;;2.70;;
16354;SDS011;8287;51.644;8.494;2023-04-24T12:33:33;5.15;;;2.55;;
16354;SDS011;8287;51.644;8.494;2023-04-24T12:36:00;2.17;;;1.98;;
16354;SDS011;8287;51.644;8.494;2023-04-24T12:38:28;7.30;;;2.78;;
16354;SDS011;8287;51.644;8.494;2023-04-24T12:41:02;3.92;;;2.83;;
16354;SDS011;8287;51.644;8.494;2023-04-24T12:43:30;2.65;;;2.38;;
16354;SDS011;8287;51.644;8.494;2023-04-24T12:45:57;3.05;;;2.80;;
16354;SDS011;8287;51.644;8.494;2023-04-24T12:48:24;3.45;;;3.15;;
16354;SDS011;8287;51.644;8.494;2023-04-24T12:50:50;7.75;;;3.60;;
16354;SDS011;8287;51.644;8.494;2023-04-24T12:53:17;5.22;;;3.78;;
16354;SDS011;8287;51.644;8.494;2023-04-24T12:55:45;4.32;;;3.38;;
16354;SDS011;8287;51.644;8.494;2023-04-24T12:58:17;5.72;;;4.13;;
16354;SDS011;8287;51.644;8.494;2023-04-24T13:00:44;7.35;;;4.07;;
16354;SDS011;8287;51.644;8.494;2023-04-24T13:03:11;6.72;;;4.15;;
16354;SDS011;8287;51.644;8.494;2023-04-24T13:05:38;6.72;;;4.00;;
16354;SDS011;8287;51.644;8.494;2023-04-24T13:08:04;10.05;;;4.63;;
16354;SDS011;8287;51.644;8.494;2023-04-24T13:10:31;4.60;;;3.97;;
16354;SDS011;8287;51.644;8.494;2023-04-24T13:12:59;4.60;;;3.83;;
16354;SDS011;8287;51.644;8.494;2023-04-24T13:15:25;5.50;;;3.88;;
16354;SDS011;8287;51.644;8.494;2023-04-24T13:17:52;6.53;;;3.97;;
16354;SDS011;8287;51.644;8.494;2023-04-24T13:20:18;6.55;;;4.13;;
16354;SDS011;8287;51.644;8.494;2023-04-24T13:22:45;6.78;;;4.07;;
16354;SDS011;8287;51.644;8.494;2023-04-24T13:25:12;7.50;;;4.85;;
16354;SDS011;8287;51.644;8.494;2023-04-24T13:27:41;9.70;;;5.28;;
16354;SDS011;8287;51.644;8.494;2023-04-24T13:30:10;6.07;;;5.13;;
16354;SDS011;8287;51.644;8.494;2023-04-24T13:32:37;9.23;;;4.68;;
16354;SDS011;8287;51.644;8.494;2023-04-24T13:35:04;11.25;;;4.80;;
16354;SDS011;8287;51.644;8.494;2023-04-24T13:37:31;8.77;;;4.78;;
16354;SDS011;8287;51.644;8.494;2023-04-24T13:39:58;8.18;;;5.68;;
16354;SDS011;8287;51.644;8.494;2023-04-24T13:42:24;12.30;;;5.80;;
16354;SDS011;8287;51.644;8.494;2023-04-24T13:44:51;10.20;;;5.82;;
16354;SDS011;8287;51.644;8.494;2023-04-24T13:47:20;8.65;;;5.57;;
16354;SDS011;8287;51.644;8.494;2023-04-24T13:49:47;19.77;;;6.72;;
16354;SDS011;8287;51.644;8.494;2023-04-24T13:52:13;10.80;;;6.45;;
16354;SDS011;8287;51.644;8.494;2023-04-24T13:54:40;16.48;;;8.10;;
16354;SDS011;8287;51.644;8.494;2023-04-24T13:57:07;7.60;;;6.78;;
16354;SDS011;8287;51.644;8.494;2023-04-24T13:59:33;9.93;;;6.32;;
16354;SDS011;8287;51.644;8.494;2023-04-24T14:02:00;12.70;;;6.07;;
16354;SDS011;8287;51.644;8.494;2023-04-24T14:04:28;10.38;;;5.85;;
16354;SDS011;8287;51.644;8.494;2023-04-24T14:06:55;15.25;;;6.60;;
16354;SDS011;8287;51.644;8.494;2023-04-24T14:09:22;6.40;;;4.35;;
16354;SDS011;8287;51.644;8.494;2023-04-24T14:11:49;6.35;;;4.68;;
16354;SDS011;8287;51.644;8.494;2023-04-24T14:14:15;10.38;;;5.35;;
16354;SDS011;8287;51.644;8.494;2023-04-24T14:16:42;6.47;;;4.60;;
16354;SDS011;8287;51.644;8.494;2023-04-24T14:19:08;9.65;;;4.75;;
16354;SDS011;8287;51.644;8.494;2023-04-24T14:21:36;9.20;;;4.35;;
16354;SDS011;8287;51.644;8.494;2023-04-24T14:24:03;10.80;;;4.00;;
16354;SDS011;8287;51.644;8.494;2023-04-24T14:26:30;8.55;;;3.72;;
16354;SDS011;8287;51.644;8.494;2023-04-24T14:28:57;8.63;;;4.85;;
16354;SDS011;8287;51.644;8.494;2023-04-24T14:31:24;8.00;;;4.43;;
16354;SDS011;8287;51.644;8.494;2023-04-24T14:33:51;6.40;;;4.40;;
16354;SDS011;8287;51.644;8.494;2023-04-24T14:36:18;6.10;;;4.22;;
16354;SDS011;8287;51.644;8.494;2023-04-24T14:38:46;5.68;;;4.10;;
16354;SDS011;8287;51.644;8.494;2023-04-24T14:41:12;6.75;;;3.90;;
16354;SDS011;8287;51.644;8.494;2023-04-24T14:43:39;7.00;;;3.47;;
16354;SDS011;8287;51.644;8.494;2023-04-24T14:46:06;6.20;;;3.42;;
16354;SDS011;8287;51.644;8.494;2023-04-24T14:48:32;3.33;;;2.47;;
16354;SDS011;8287;51.644;8.494;2023-04-24T14:50:59;5.07;;;3.15;;
16354;SDS011;8287;51.644;8.494;2023-04-24T14:53:25;9.75;;;3.25;;
16354;SDS011;8287;51.644;8.494;2023-04-24T14:55:53;6.63;;;3.42;;
16354;SDS011;8287;51.644;8.494;2023-04-24T14:58:20;4.63;;;3.40;;
16354;SDS011;8287;51.644;8.494;2023-04-24T15:00:47;5.18;;;3.20;;
16354;SDS011;8287;51.644;8.494;2023-04-24T15:03:15;5.00;;;2.80;;
16354;SDS011;8287;51.644;8.494;2023-04-24T15:05:42;4.88;;;3.08;;
16354;SDS011;8287;51.644;8.494;2023-04-24T15:08:08;8.68;;;3.28;;